Lafayette, IN (47901)

1:56 AM EDT on May 25, 2017 (GMT -0400)
New Chauncey | | Change Station
Active Advisory: Flood Warning

Elev 614 ft 40.43 °N, 86.90 °W | Updated 8 seconds ago

Light Rain
Light Rain Mist
54.9 °F
Feels Like 54.9 °F
N
0.0
Wind Variable Wind from North
Gusts 0.0 mph

Today
High -- | Low -- °F
--% Chance of Precip.
Yesterday
High -- | Low -- °F
Precip. -- in
Pressure 29.47 in
Visibility 3.0 miles
Clouds Overcast 500 ft
Dew Point 55 °F
Humidity 99%
Rainfall 0.02 in
Snow Depth Not available.
6:23 AM 9:06 PM
Waning Crescent, 1% visible
METAR KLAF 250554Z AUTO 32013KT 3SM -RA BR OVC005 12/12 A2947 RMK AO2 RAB0455 SLP977 P0001 60001 T01170117 10150 20117 58002
Pressure 29.47 in
Visibility 3.0 miles
Clouds Overcast 500 ft
Dew Point 55 °F
Humidity 99%
Rainfall 0.02 in
Snow Depth Not available.
6:23 AM 9:06 PM
Waning Crescent, 1% visible
METAR KLAF 250554Z AUTO 32013KT 3SM -RA BR OVC005 12/12 A2947 RMK AO2 RAB0455 SLP977 P0001 60001 T01170117 10150 20117 58002

Get Your Daily Forecast Email!

Thanks for signing up!

Be on the lookout for a verification email in your inbox.

You'll start receiving severe weather alerts in your inbox..

×

10-Day Weather Forecast

Almanac

Astronomy

May. 25, 2017 Rise Set
Actual Time
Civil Twilight
Nautical Twilight
Astronomical Twilight
Moon
Length of Visible Light
Length of Day
Tomorrow will be .
, % of the Moon is Illuminated

Today's Extremes

State Highs State Lows

Community

WunderPhotos

Category 6

Welcome to Category 6. This is the collective home for Weather Underground's featured writeups by Dr. Jeff Masters (right), Bob Henson (left), Chris Burt, and other regular contributors.

Nearby

Air Quality

  Air Quality AQ Index Pollutant
Not available.

Snow Depth

Station Depth Elevation

Earthquake Activity

City Distance Mag. Time & Date
Minimum magnitude displayed is 2.5.

Coastal Water Temperatures

Place Temperature

Stations

Nearby Weather Stations

Station Location Temp. Windchill Dew Point Humidity Wind Precip. Elev Updated Type
                   

Watches & Warnings

Flood Warning
Issued: 10:54 AM EDT May. 24, 2017 – National Weather Service

The Flood Warning continues for
the Wabash River at Lafayette.
* Until late Sunday night.
* At 10:16 am Wednesday the stage was 12.8 feet.
* Flood stage is 11.0 feet.
* Minor flooding is occurring and minor flooding is forecast.
* Forecast... the river will continue to fall to below flood stage by
Sunday early afternoon.
* At 12.0 feet... high water affects a few low river Cabins and County
roads.


Lat... Lon 4054 8670 4040 8688 4033 8709 4040 8709
      4048 8688 4056 8673